createdAt,value
2018-06-01T00:00:22.196Z,72.40
2018-06-01T00:02:49.810Z,73.40
2018-06-01T00:05:23.150Z,76.00
2018-06-01T00:07:50.714Z,76.00
2018-06-01T00:10:18.305Z,77.10
2018-06-01T00:12:45.862Z,78.00
2018-06-01T00:15:14.120Z,79.10
2018-06-01T00:17:41.931Z,80.00
2018-06-01T00:20:09.466Z,80.30
2018-06-01T00:22:37.023Z,80.90
2018-06-01T00:25:05.341Z,82.10
2018-06-01T00:27:32.923Z,81.90
2018-06-01T00:30:00.455Z,82.50
2018-06-01T00:32:28.070Z,83.10
2018-06-01T00:34:55.690Z,84.10
2018-06-01T00:37:23.223Z,84.40
2018-06-01T00:39:50.805Z,85.00
2018-06-01T00:42:18.332Z,86.10
2018-06-01T00:44:45.973Z,85.70
2018-06-01T00:47:13.494Z,86.10
2018-06-01T00:49:41.048Z,86.20
2018-06-01T00:52:08.583Z,86.60
2018-06-01T00:57:36.429Z,87.40
2018-06-01T01:00:04.849Z,88.40
2018-06-01T01:02:33.367Z,88.30
2018-06-01T01:05:01.694Z,89.30
2018-06-01T01:07:29.341Z,89.30
2018-06-01T01:09:56.903Z,89.50
2018-06-01T01:12:24.460Z,89.70
2018-06-01T01:14:52.802Z,90.30
2018-06-01T01:17:20.335Z,90.30
2018-06-01T01:19:47.913Z,90.40
2018-06-01T01:22:15.602Z,90.60
2018-06-01T01:24:43.153Z,90.70
2018-06-01T01:27:11.492Z,91.50
2018-06-01T01:29:39.037Z,91.50
2018-06-01T01:32:06.558Z,91.70
2018-06-01T01:34:34.939Z,92.00
2018-06-01T01:37:02.467Z,92.00
2018-06-01T01:39:30.777Z,92.20
2018-06-01T01:41:58.407Z,92.20
2018-06-01T01:47:56.635Z,92.30
2018-06-01T01:50:24.956Z,92.70
2018-06-01T01:52:52.502Z,92.60
2018-06-01T01:55:20.136Z,92.60
2018-06-01T01:57:49.731Z,92.70
2018-06-01T02:00:17.298Z,92.70
2018-06-01T02:02:44.823Z,92.60
2018-06-01T02:05:12.371Z,92.70
2018-06-01T02:07:39.896Z,93.00
2018-06-01T02:10:07.456Z,92.70
2018-06-01T02:12:34.977Z,92.70
2018-06-01T02:15:02.522Z,92.70
2018-06-01T02:17:30.055Z,92.70
2018-06-01T02:19:57.628Z,92.70
2018-06-01T02:22:25.219Z,92.80
2018-06-01T02:24:53.538Z,92.90
2018-06-01T02:27:21.091Z,92.80
2018-06-01T02:29:48.633Z,92.80
2018-06-01T02:32:16.162Z,92.70
2018-06-01T02:34:44.352Z,92.60
2018-06-01T02:37:12.175Z,92.70
2018-06-01T02:39:39.723Z,92.70
2018-06-01T02:42:07.252Z,92.70
2018-06-01T02:44:34.799Z,92.60
2018-06-01T02:47:02.401Z,92.50
2018-06-01T02:49:29.919Z,92.50
2018-06-01T02:51:57.952Z,92.40
2018-06-01T02:54:25.533Z,92.40
2018-06-01T02:56:53.152Z,92.40
2018-06-01T02:59:20.792Z,92.40
2018-06-01T03:01:48.317Z,92.40
2018-06-01T03:04:15.899Z,92.40
2018-06-01T03:06:55.127Z,92.30
2018-06-01T03:09:22.681Z,92.60
2018-06-01T03:11:50.212Z,92.20
2018-06-01T03:14:17.764Z,92.10
2018-06-01T03:16:46.332Z,92.00
2018-06-01T03:19:13.865Z,92.00
2018-06-01T03:21:41.415Z,91.90
2018-06-01T03:24:08.955Z,91.80
2018-06-01T03:26:36.507Z,91.70
2018-06-01T03:29:04.065Z,91.80
2018-06-01T03:31:31.674Z,91.70
2018-06-01T03:33:59.260Z,91.60
2018-06-01T03:36:26.806Z,91.70
2018-06-01T03:38:55.090Z,91.80
2018-06-01T03:41:22.637Z,91.60
2018-06-01T03:43:50.204Z,91.50
2018-06-01T03:46:17.768Z,91.70
2018-06-01T03:48:45.297Z,91.50
2018-06-01T03:51:12.840Z,91.50
2018-06-01T03:53:40.415Z,91.30
2018-06-01T03:56:08.039Z,91.30
2018-06-01T03:58:35.669Z,91.20
2018-06-01T04:01:03.774Z,91.20
2018-06-01T04:03:31.303Z,91.10
2018-06-01T04:05:58.841Z,91.00
2018-06-01T04:08:26.429Z,90.90
2018-06-01T04:10:54.755Z,90.80
2018-06-01T04:13:22.319Z,90.70
2018-06-01T04:15:49.988Z,90.60
2018-06-01T04:18:18.288Z,90.30
2018-06-01T04:20:45.939Z,90.30
2018-06-01T04:23:13.462Z,90.20
2018-06-01T04:25:41.024Z,90.20
2018-06-01T04:28:08.556Z,90.10
2018-06-01T04:30:36.096Z,90.10
2018-06-01T04:33:03.664Z,90.20
2018-06-01T04:35:31.203Z,90.10
2018-06-01T04:37:58.797Z,90.00
2018-06-01T04:40:27.126Z,89.60
2018-06-01T04:42:54.651Z,89.60
2018-06-01T04:45:22.203Z,89.70
2018-06-01T04:47:52.544Z,89.30
2018-06-01T04:50:20.113Z,89.20
2018-06-01T04:52:47.667Z,89.10
2018-06-01T04:55:16.488Z,88.60
2018-06-01T04:57:44.036Z,88.50
2018-06-01T05:00:11.550Z,88.30
2018-06-01T05:02:39.142Z,88.10
2018-06-01T05:05:07.450Z,87.80
2018-06-01T05:07:35.523Z,87.70
2018-06-01T05:10:03.608Z,87.70
2018-06-01T05:12:31.155Z,87.60
2018-06-01T05:14:59.451Z,86.90
2018-06-01T05:17:27.786Z,86.70
2018-06-01T05:19:55.314Z,86.70
2018-06-01T05:22:23.804Z,86.50
2018-06-01T05:24:52.100Z,85.90
2018-06-01T05:27:19.671Z,85.90
2018-06-01T05:29:47.202Z,85.90
2018-06-01T05:32:15.758Z,85.60
2018-06-01T05:34:47.072Z,85.60
2018-06-01T05:37:14.742Z,85.40
2018-06-01T05:39:42.309Z,85.10
2018-06-01T05:42:09.854Z,85.10
2018-06-01T05:44:37.390Z,85.40
2018-06-01T05:47:06.798Z,84.70
2018-06-01T05:49:34.321Z,84.40
2018-06-01T05:52:01.874Z,84.10
2018-06-01T05:54:29.414Z,83.80
2018-06-01T05:56:56.971Z,83.70
2018-06-01T05:59:24.509Z,83.40
2018-06-01T06:01:52.055Z,83.30
2018-06-01T06:04:19.964Z,83.00
2018-06-01T06:06:48.275Z,83.00
2018-06-01T06:09:17.323Z,82.80
2018-06-01T06:11:44.875Z,82.70
2018-06-01T06:14:12.445Z,82.50
2018-06-01T06:16:40.001Z,81.90
2018-06-01T06:19:07.519Z,81.90
2018-06-01T06:21:35.110Z,82.10
2018-06-01T06:24:03.399Z,81.50
2018-06-01T06:26:31.707Z,81.40
2018-06-01T06:28:59.270Z,80.90
2018-06-01T06:31:26.862Z,81.00
2018-06-01T06:33:55.125Z,80.10
2018-06-01T06:36:22.702Z,80.10
2018-06-01T06:38:50.280Z,80.30
2018-06-01T06:41:18.592Z,79.90
2018-06-01T06:43:46.170Z,79.90
2018-06-01T06:46:13.721Z,79.30
2018-06-01T06:48:41.241Z,79.40
2018-06-01T06:51:09.158Z,79.20
2018-06-01T06:53:36.699Z,78.80
2018-06-01T06:56:05.823Z,78.60
2018-06-01T06:58:33.412Z,78.50
2018-06-01T07:01:01.730Z,77.20
2018-06-01T07:03:29.318Z,77.20
2018-06-01T07:05:57.706Z,76.10
2018-06-01T07:08:25.356Z,76.00
2018-06-01T07:10:52.945Z,76.00
2018-06-01T07:13:20.545Z,75.70
2018-06-01T07:15:48.582Z,75.20
2018-06-01T07:18:16.193Z,73.90
2018-06-01T07:20:43.686Z,73.50
2018-06-01T07:23:11.575Z,73.20
2018-06-01T07:25:39.494Z,72.60
2018-06-01T07:28:07.058Z,71.60
2018-06-01T07:30:34.769Z,72.20
2018-06-01T07:33:02.330Z,71.80
2018-06-01T07:35:29.947Z,71.30
2018-06-01T07:37:58.283Z,71.20
2018-06-01T07:40:25.820Z,71.10
2018-06-01T07:42:53.405Z,70.70
2018-06-01T07:45:20.971Z,69.50
2018-06-01T07:47:49.427Z,68.60
2018-06-01T07:50:16.952Z,68.50
2018-06-01T07:52:45.347Z,66.70
2018-06-01T07:55:12.911Z,66.70
2018-06-01T07:57:40.509Z,66.20
2018-06-01T08:00:08.844Z,64.70
2018-06-01T08:02:36.391Z,64.60
2018-06-01T08:05:03.917Z,64.60
2018-06-01T08:07:31.481Z,63.60
2018-06-01T08:09:59.111Z,62.80
2018-06-01T08:12:26.727Z,61.10
2018-06-01T08:14:54.246Z,60.50
2018-06-01T08:17:22.548Z,58.50
2018-06-01T08:19:50.091Z,58.50
2018-06-01T08:22:17.626Z,57.60
2018-06-01T08:24:45.201Z,57.40
2018-06-01T08:27:12.738Z,56.40
2018-06-01T08:29:40.305Z,56.30
2018-06-01T08:32:07.871Z,56.70
2018-06-01T08:34:36.182Z,57.10
2018-06-01T08:37:03.704Z,57.00
2018-06-01T08:39:31.496Z,57.40
2018-06-01T08:41:59.089Z,57.90
2018-06-01T08:44:27.132Z,57.30
2018-06-01T08:46:54.693Z,57.40
2018-06-01T08:49:24.386Z,57.70
2018-06-01T08:51:52.244Z,57.70
2018-06-01T08:54:21.036Z,56.70
2018-06-01T08:56:48.551Z,56.60
2018-06-01T08:59:16.902Z,56.00
2018-06-01T09:01:45.181Z,55.60
2018-06-01T09:04:12.741Z,55.50
2018-06-01T09:06:40.280Z,54.90
2018-06-01T09:09:08.711Z,54.80
2018-06-01T09:11:36.999Z,56.80
2018-06-01T09:14:04.556Z,56.80
2018-06-01T09:16:32.077Z,55.80
2018-06-01T09:19:00.386Z,56.70
2018-06-01T09:21:27.920Z,56.60
2018-06-01T09:23:57.192Z,57.00
2018-06-01T09:26:24.814Z,57.20
2018-06-01T09:28:53.143Z,56.30
2018-06-01T09:31:21.165Z,56.30
2018-06-01T09:33:48.740Z,55.70
2018-06-01T09:36:16.264Z,54.60
2018-06-01T09:38:43.848Z,54.30
2018-06-01T09:41:11.910Z,53.40
2018-06-01T09:43:40.231Z,52.70
2018-06-01T09:46:07.750Z,52.70
2018-06-01T09:48:35.308Z,53.50
2018-06-01T09:51:02.862Z,51.00
2018-06-01T09:53:30.446Z,51.00
2018-06-01T09:55:58.916Z,52.40
2018-06-01T09:58:26.471Z,51.70
2018-06-01T10:00:59.883Z,50.40
2018-06-01T10:03:27.431Z,49.60
2018-06-01T10:05:55.664Z,50.40
2018-06-01T10:08:23.227Z,49.90
2018-06-01T10:10:50.787Z,50.90
2018-06-01T10:13:18.314Z,50.70
2018-06-01T10:15:45.863Z,51.30
2018-06-01T10:18:13.397Z,51.50
2018-06-01T10:20:40.967Z,52.00
2018-06-01T10:23:08.509Z,52.00
2018-06-01T10:25:36.108Z,51.70
2018-06-01T10:28:03.642Z,52.20
2018-06-01T10:30:32.150Z,50.70
2018-06-01T10:32:59.716Z,50.70
2018-06-01T10:35:27.266Z,49.40
2018-06-01T10:37:54.834Z,48.80
2018-06-01T10:40:25.214Z,49.00
2018-06-01T10:42:52.839Z,48.50
2018-06-01T10:45:20.419Z,47.80
2018-06-01T10:47:47.952Z,47.60
2018-06-01T10:50:15.594Z,47.20
2018-06-01T10:52:43.150Z,46.40
2018-06-01T10:55:10.803Z,46.50
2018-06-01T10:57:39.484Z,46.40
2018-06-01T11:00:07.628Z,46.40
2018-06-01T11:02:36.061Z,46.90
2018-06-01T11:05:03.615Z,46.70
2018-06-01T11:07:31.134Z,46.10
2018-06-01T11:09:58.722Z,46.40
2018-06-01T11:12:27.823Z,46.30
2018-06-01T11:14:56.571Z,46.00
2018-06-01T11:17:25.879Z,45.90
2018-06-01T11:19:54.950Z,45.10
2018-06-01T11:22:22.525Z,45.10
2018-06-01T11:24:51.460Z,43.90
2018-06-01T11:27:19.096Z,43.90
2018-06-01T11:29:46.737Z,44.30
2018-06-01T11:32:14.468Z,44.50
2018-06-01T11:34:42.346Z,44.30
2018-06-01T11:37:09.963Z,44.70
2018-06-01T11:39:40.782Z,44.60
2018-06-01T11:42:08.538Z,44.30
2018-06-01T11:44:37.322Z,42.90
2018-06-01T11:47:06.021Z,43.90
2018-06-01T11:49:36.303Z,45.00
2018-06-01T11:52:03.936Z,44.90
2018-06-01T11:54:31.550Z,46.90
2018-06-01T11:56:59.203Z,47.80
2018-06-01T11:59:27.865Z,47.30
2018-06-01T12:01:55.684Z,47.30
2018-06-01T12:04:23.271Z,46.80
2018-06-01T12:06:51.643Z,47.50
2018-06-01T12:09:20.325Z,47.70
2018-06-01T12:11:48.214Z,47.70
2018-06-01T12:14:16.834Z,47.90
2018-06-01T12:16:44.579Z,47.80
2018-06-01T12:19:12.531Z,47.60
2018-06-01T12:21:41.000Z,47.50
2018-06-01T12:24:08.675Z,47.50
2018-06-01T12:26:36.633Z,46.50
2018-06-01T12:29:04.291Z,46.50
2018-06-01T12:31:31.971Z,46.50
2018-06-01T12:33:59.555Z,45.90
2018-06-01T12:36:27.163Z,45.50
2018-06-01T12:38:54.872Z,45.20
2018-06-01T12:41:22.466Z,44.50
2018-06-01T12:43:49.986Z,43.80
2018-06-01T12:46:17.595Z,43.50
2018-06-01T12:48:45.164Z,42.90
2018-06-01T12:51:12.743Z,41.60
2018-06-01T12:53:40.319Z,41.70
2018-06-01T12:56:08.138Z,40.80
2018-06-01T12:58:35.716Z,40.30
2018-06-01T13:01:03.511Z,39.30
2018-06-01T13:03:31.298Z,39.90
2018-06-01T13:05:58.851Z,40.20
2018-06-01T13:08:26.594Z,39.40
2018-06-01T13:10:54.340Z,37.90
2018-06-01T13:13:22.690Z,39.60
2018-06-01T13:15:50.315Z,39.50
2018-06-01T13:18:18.634Z,39.00
2018-06-01T13:20:46.235Z,39.00
2018-06-01T13:23:13.738Z,39.80
2018-06-01T13:25:41.420Z,40.50
2018-06-01T13:28:09.819Z,40.20
2018-06-01T13:30:41.473Z,38.70
2018-06-01T13:33:09.084Z,38.70
2018-06-01T13:35:36.828Z,38.30
2018-06-01T13:38:04.437Z,37.70
2018-06-01T13:40:32.381Z,37.90
2018-06-01T13:42:59.998Z,38.20
2018-06-01T13:45:28.438Z,38.00
2018-06-01T13:47:56.193Z,37.90
2018-06-01T13:50:24.633Z,36.00
2018-06-01T13:52:52.397Z,36.00
2018-06-01T13:55:20.144Z,36.30
2018-06-01T13:57:47.919Z,36.50
2018-06-01T14:00:16.237Z,36.80
2018-06-01T14:02:44.233Z,37.10
2018-06-01T14:05:11.780Z,38.40
2018-06-01T14:07:40.897Z,38.10
2018-06-01T14:10:09.321Z,38.20
2018-06-01T14:12:38.609Z,38.20
2018-06-01T14:15:06.183Z,41.60
2018-06-01T14:17:33.741Z,42.30
2018-06-01T14:20:01.431Z,43.00
2018-06-01T14:22:29.050Z,43.20
2018-06-01T14:24:57.378Z,43.30
2018-06-01T14:27:25.053Z,43.30
2018-06-01T14:29:52.678Z,43.80
2018-06-01T14:32:20.238Z,43.90
2018-06-01T14:34:47.870Z,43.60
2018-06-01T14:37:15.440Z,44.30
2018-06-01T14:39:43.745Z,44.30
2018-06-01T14:42:11.465Z,44.30
2018-06-01T14:44:39.082Z,44.40
2018-06-01T14:47:06.951Z,45.00
2018-06-01T14:49:35.166Z,45.60
2018-06-01T14:52:02.723Z,46.50
2018-06-01T14:54:30.379Z,46.90
2018-06-01T14:56:58.040Z,47.60
2018-06-01T14:59:26.342Z,47.30
2018-06-01T15:01:54.408Z,47.30
2018-06-01T15:04:23.058Z,47.50
2018-06-01T15:06:50.636Z,46.30
2018-06-01T15:09:18.199Z,46.50
2018-06-01T15:11:45.956Z,46.60
2018-06-01T15:14:13.680Z,47.00
2018-06-01T15:16:41.310Z,47.00
2018-06-01T15:19:08.886Z,47.10
2018-06-01T15:21:36.398Z,47.60
2018-06-01T15:24:04.065Z,47.60
2018-06-01T15:26:31.596Z,47.10
2018-06-01T15:29:04.902Z,47.10
2018-06-01T15:31:32.592Z,47.10
2018-06-01T15:34:01.256Z,46.10
2018-06-01T15:36:31.090Z,46.50
2018-06-01T15:38:58.643Z,45.70
2018-06-01T15:41:26.183Z,45.10
2018-06-01T15:43:53.832Z,44.60
2018-06-01T15:46:21.385Z,43.30
2018-06-01T15:48:49.806Z,41.00
2018-06-01T15:51:21.991Z,41.00
2018-06-01T15:53:49.624Z,41.10
2018-06-01T15:56:17.299Z,41.90
2018-06-01T15:58:44.988Z,43.00
2018-06-01T16:01:12.762Z,43.20
2018-06-01T16:03:40.702Z,43.10
2018-06-01T16:06:08.252Z,42.40
2018-06-01T16:08:39.268Z,41.90
2018-06-01T16:11:07.578Z,41.10
2018-06-01T16:13:35.358Z,41.00
2018-06-01T16:16:03.847Z,41.10
2018-06-01T16:18:31.441Z,41.00
2018-06-01T16:20:59.061Z,39.90
2018-06-01T16:23:27.359Z,40.60
2018-06-01T16:25:54.988Z,40.60
2018-06-01T16:28:22.558Z,41.80
2018-06-01T16:30:50.214Z,42.80
2018-06-01T16:33:18.824Z,46.80
2018-06-01T16:35:46.419Z,46.50
2018-06-01T16:38:14.446Z,48.00
2018-06-01T16:40:42.114Z,49.80
2018-06-01T16:43:10.099Z,51.50
2018-06-01T16:45:37.854Z,53.10
2018-06-01T16:48:06.201Z,58.10
2018-06-01T16:50:33.848Z,58.00
2018-06-01T16:53:01.392Z,59.70
2018-06-01T16:55:29.146Z,61.70
2018-06-01T16:57:56.901Z,64.10
2018-06-01T17:00:25.216Z,72.20
2018-06-01T17:02:52.735Z,72.20
2018-06-01T17:05:20.382Z,84.00
2018-06-01T17:07:47.914Z,84.60
2018-06-01T17:10:16.230Z,86.80
2018-06-01T17:12:43.758Z,86.90
2018-06-01T17:15:11.302Z,89.80
2018-06-01T17:17:38.844Z,91.10
2018-06-01T17:20:06.398Z,92.60
2018-06-01T17:22:33.987Z,92.40
2018-06-01T17:25:01.495Z,93.50
2018-06-01T17:27:29.022Z,93.20
2018-06-01T17:29:57.398Z,96.40
2018-06-01T17:32:24.993Z,96.40
2018-06-01T17:34:53.298Z,97.00
2018-06-01T17:37:20.893Z,96.90
2018-06-01T17:39:49.224Z,97.10
2018-06-01T17:42:16.744Z,97.10
2018-06-01T17:44:44.282Z,97.80
2018-06-01T17:47:11.811Z,97.70
2018-06-01T17:49:39.379Z,98.40
2018-06-01T17:52:06.945Z,99.30
2018-06-01T17:54:34.598Z,98.80
2018-06-01T17:57:03.639Z,99.90
2018-06-01T17:59:31.189Z,99.90
2018-06-01T18:01:59.488Z,99.90
2018-06-01T18:04:27.106Z,99.90
2018-06-01T18:06:54.662Z,99.90
2018-06-01T18:09:22.295Z,99.90
2018-06-01T18:11:51.759Z,99.90
2018-06-01T18:14:19.278Z,99.90
2018-06-01T18:16:47.626Z,99.90
2018-06-01T18:19:15.152Z,99.90
2018-06-01T18:21:42.698Z,99.90
2018-06-01T18:24:10.255Z,99.90
2018-06-01T18:26:37.917Z,99.90
2018-06-01T18:29:06.303Z,99.90
2018-06-01T18:31:34.031Z,99.90
2018-06-01T18:34:02.345Z,99.90
2018-06-01T18:36:29.918Z,99.90
2018-06-01T18:38:57.472Z,99.90
2018-06-01T18:41:26.592Z,99.90
2018-06-01T18:43:54.147Z,99.90
2018-06-01T18:46:21.739Z,99.90
2018-06-01T18:48:50.061Z,99.90
2018-06-01T18:51:17.715Z,99.90
2018-06-01T18:53:45.364Z,99.90
2018-06-01T18:56:13.019Z,99.90
2018-06-01T18:58:40.526Z,99.90
2018-06-01T19:01:08.207Z,99.90
2018-06-01T19:03:35.728Z,99.90
2018-06-01T19:06:03.400Z,99.90
2018-06-01T19:08:30.919Z,99.90
2018-06-01T19:10:58.462Z,99.90
2018-06-01T19:13:25.998Z,99.90
2018-06-01T19:15:53.551Z,99.90
2018-06-01T19:18:21.113Z,99.90
2018-06-01T19:20:48.659Z,99.90
2018-06-01T19:23:16.219Z,99.90
2018-06-01T19:25:43.764Z,99.90
2018-06-01T19:28:11.287Z,99.90
2018-06-01T19:30:38.831Z,99.90
2018-06-01T19:33:06.603Z,99.90
2018-06-01T19:35:37.571Z,99.90
2018-06-01T19:38:05.290Z,99.90
2018-06-01T19:40:33.576Z,99.90
2018-06-01T19:43:01.124Z,99.90
2018-06-01T19:45:29.418Z,99.90
2018-06-01T19:47:56.974Z,99.90
2018-06-01T19:50:24.523Z,99.90
2018-06-01T19:52:52.518Z,99.90
2018-06-01T19:55:20.797Z,99.90
2018-06-01T19:57:49.931Z,99.90
2018-06-01T20:00:18.648Z,99.90
2018-06-01T20:02:46.234Z,99.90
2018-06-01T20:05:13.778Z,99.90
2018-06-01T20:07:41.321Z,99.90
2018-06-01T20:10:08.847Z,99.90
2018-06-01T20:12:36.474Z,99.90
2018-06-01T20:15:05.065Z,99.90
2018-06-01T20:17:32.653Z,99.90
2018-06-01T20:20:00.174Z,99.90
2018-06-01T20:22:27.763Z,99.90
2018-06-01T20:24:56.280Z,99.90
2018-06-01T20:27:23.826Z,99.90
2018-06-01T20:29:51.391Z,99.90
2018-06-01T20:32:18.979Z,99.90
2018-06-01T20:34:46.713Z,99.90
2018-06-01T20:37:15.026Z,99.90
2018-06-01T20:39:42.574Z,99.90
2018-06-01T20:42:10.148Z,99.90
2018-06-01T20:44:37.709Z,99.90
2018-06-01T20:47:06.043Z,99.90
2018-06-01T20:49:33.641Z,99.90
2018-06-01T20:52:02.023Z,99.90
2018-06-01T20:54:29.591Z,99.90
2018-06-01T20:56:57.151Z,99.90
2018-06-01T20:59:24.720Z,99.90
2018-06-01T21:01:53.007Z,99.90
2018-06-01T21:04:20.566Z,99.90
2018-06-01T21:06:48.240Z,99.90
2018-06-01T21:09:15.789Z,99.90
2018-06-01T21:11:43.310Z,99.90
2018-06-01T21:14:10.853Z,99.90
2018-06-01T21:16:38.398Z,99.90
2018-06-01T21:19:05.938Z,99.90
2018-06-01T21:21:33.454Z,99.90
2018-06-01T21:24:01.008Z,99.90
2018-06-01T21:26:28.550Z,99.90
2018-06-01T21:28:56.100Z,99.90
2018-06-01T21:31:23.648Z,99.90
2018-06-01T21:33:51.212Z,99.90
2018-06-01T21:36:18.734Z,99.90
2018-06-01T21:38:46.283Z,99.90
2018-06-01T21:41:13.803Z,99.90
2018-06-01T21:43:42.234Z,99.90
2018-06-01T21:46:10.691Z,99.90
2018-06-01T21:48:38.259Z,99.90
2018-06-01T21:51:06.559Z,99.90
2018-06-01T21:53:34.623Z,99.90
2018-06-01T21:56:02.150Z,99.90
2018-06-01T21:58:29.739Z,99.90
2018-06-01T22:00:57.278Z,99.90
2018-06-01T22:03:24.825Z,99.90
2018-06-01T22:05:52.348Z,99.90
2018-06-01T22:08:19.908Z,99.90
2018-06-01T22:10:47.426Z,99.90
2018-06-01T22:13:14.966Z,99.90
2018-06-01T22:15:42.548Z,99.90
2018-06-01T22:18:10.167Z,99.90
2018-06-01T22:20:38.610Z,99.90
2018-06-01T22:23:06.136Z,99.90
2018-06-01T22:25:34.516Z,99.90
2018-06-01T22:28:03.329Z,99.90
2018-06-01T22:30:30.878Z,99.90
2018-06-01T22:32:58.414Z,99.90
2018-06-01T22:35:27.499Z,99.90
2018-06-01T22:37:55.033Z,99.90
2018-06-01T22:40:22.604Z,99.90
2018-06-01T22:42:50.138Z,99.90
2018-06-01T22:45:17.821Z,99.90
2018-06-01T22:47:45.370Z,99.90
2018-06-01T22:50:12.903Z,99.90
2018-06-01T22:52:40.428Z,99.90
2018-06-01T22:55:08.002Z,99.90
2018-06-01T22:57:36.294Z,99.90
2018-06-01T23:00:03.886Z,99.90
2018-06-01T23:02:31.406Z,99.90
2018-06-01T23:04:58.952Z,99.90
2018-06-01T23:07:26.473Z,99.90
2018-06-01T23:09:54.091Z,99.90
2018-06-01T23:12:22.410Z,99.90
2018-06-01T23:14:49.954Z,99.90
2018-06-01T23:17:17.477Z,99.90
2018-06-01T23:19:45.045Z,99.90
2018-06-01T23:22:12.592Z,99.90
2018-06-01T23:24:40.939Z,99.90
2018-06-01T23:27:08.462Z,99.90
2018-06-01T23:29:36.014Z,99.90
2018-06-01T23:32:05.849Z,99.90
2018-06-01T23:34:33.403Z,99.90
2018-06-01T23:37:01.691Z,99.90
2018-06-01T23:39:29.978Z,99.90
2018-06-01T23:41:57.518Z,99.90
2018-06-01T23:44:25.083Z,99.90
2018-06-01T23:46:52.629Z,99.90
2018-06-01T23:49:20.168Z,99.90
2018-06-01T23:51:47.715Z,99.90
2018-06-01T23:54:15.363Z,99.90
2018-06-01T23:56:42.902Z,99.90
2018-06-01T23:59:10.455Z,99.90
